createdAt,value
2023-02-05T00:01:10.182Z,1.90
2023-02-05T00:03:38.351Z,1.60
2023-02-05T00:06:05.172Z,1.23
2023-02-05T00:08:31.566Z,0.93
2023-02-05T00:10:57.948Z,1.20
2023-02-05T00:13:24.345Z,1.55
2023-02-05T00:15:50.742Z,2.07
2023-02-05T00:18:17.090Z,1.83
2023-02-05T00:20:43.520Z,2.15
2023-02-05T00:23:09.859Z,2.10
2023-02-05T00:25:36.284Z,1.95
2023-02-05T00:28:02.834Z,1.73
2023-02-05T00:30:29.777Z,1.60
2023-02-05T00:32:56.225Z,1.50
2023-02-05T00:35:22.632Z,1.98
2023-02-05T00:37:48.975Z,1.42
2023-02-05T00:40:15.330Z,2.00
2023-02-05T00:42:41.691Z,1.60
2023-02-05T00:45:08.630Z,2.10
2023-02-05T00:47:34.985Z,1.95
2023-02-05T00:50:01.343Z,2.35
2023-02-05T00:52:27.792Z,2.87
2023-02-05T00:54:54.158Z,3.35
2023-02-05T00:57:24.600Z,3.10
2023-02-05T00:59:52.368Z,2.05
2023-02-05T01:02:23.677Z,1.80
2023-02-05T01:04:53.406Z,2.33
2023-02-05T01:07:20.309Z,1.70
2023-02-05T01:09:46.873Z,1.83
2023-02-05T01:12:14.305Z,1.77
2023-02-05T01:14:41.591Z,2.00
2023-02-05T01:17:08.600Z,1.97
2023-02-05T01:19:35.798Z,1.90
2023-02-05T01:22:02.681Z,1.95
2023-02-05T01:24:29.040Z,1.75
2023-02-05T01:26:57.783Z,1.80
2023-02-05T01:29:26.850Z,1.93
2023-02-05T01:31:54.147Z,2.38
2023-02-05T01:34:21.152Z,2.00
2023-02-05T01:36:47.908Z,2.08
2023-02-05T01:39:14.419Z,2.00
2023-02-05T01:41:44.475Z,1.87
2023-02-05T01:44:13.834Z,1.90
2023-02-05T01:46:43.097Z,1.83
2023-02-05T01:49:15.404Z,2.40
2023-02-05T01:51:42.098Z,1.98
2023-02-05T01:54:08.747Z,1.93
2023-02-05T01:56:45.053Z,2.33
2023-02-05T01:59:18.791Z,2.47
2023-02-05T02:01:45.896Z,2.20
2023-02-05T02:04:16.835Z,2.20
2023-02-05T02:06:43.238Z,2.47
2023-02-05T02:09:09.875Z,2.88
2023-02-05T02:11:41.599Z,2.40
2023-02-05T02:14:09.521Z,2.38
2023-02-05T02:16:38.902Z,2.33
2023-02-05T02:19:15.224Z,2.90
2023-02-05T02:21:50.202Z,2.47
2023-02-05T02:24:40.216Z,2.90
2023-02-05T02:27:21.785Z,2.67
2023-02-05T02:29:57.171Z,2.92
2023-02-05T02:32:41.337Z,2.50
2023-02-05T02:35:15.770Z,3.00
2023-02-05T02:37:58.353Z,2.75
2023-02-05T02:40:46.564Z,3.08
2023-02-05T02:43:51.896Z,2.33
2023-02-05T02:46:28.109Z,2.70
2023-02-05T02:48:58.272Z,2.72
2023-02-05T02:51:27.718Z,2.40
2023-02-05T02:53:57.874Z,2.63
2023-02-05T02:56:27.631Z,2.88
2023-02-05T02:59:03.247Z,2.70
2023-02-05T03:01:33.263Z,2.72
2023-02-05T03:04:07.198Z,2.60
2023-02-05T03:06:34.787Z,2.75
2023-02-05T03:09:07.841Z,2.65
2023-02-05T03:11:34.516Z,3.00
2023-02-05T03:14:00.993Z,2.63
2023-02-05T03:16:27.931Z,2.80
2023-02-05T03:18:55.898Z,3.10
2023-02-05T03:21:30.443Z,2.72
2023-02-05T03:23:56.986Z,3.07
2023-02-05T03:26:28.976Z,2.88
2023-02-05T03:28:57.264Z,3.17
2023-02-05T03:31:34.729Z,2.83
2023-02-05T03:34:46.138Z,2.67
2023-02-05T03:37:31.200Z,2.77
2023-02-05T03:40:05.539Z,2.67
2023-02-05T03:42:56.791Z,2.75
2023-02-05T03:45:39.493Z,2.50
2023-02-05T03:48:22.371Z,3.20
2023-02-05T03:51:20.746Z,2.80
2023-02-05T03:54:18.286Z,2.97
2023-02-05T03:57:08.578Z,2.97
2023-02-05T03:59:36.839Z,3.40
2023-02-05T04:02:06.556Z,3.00
2023-02-05T04:04:32.926Z,3.23
2023-02-05T04:06:59.319Z,3.20
2023-02-05T04:09:25.669Z,3.25
2023-02-05T04:11:52.017Z,3.53
2023-02-05T04:14:18.387Z,3.13
2023-02-05T04:16:44.784Z,3.97
2023-02-05T04:19:11.147Z,3.40
2023-02-05T04:21:37.502Z,3.30
2023-02-05T04:24:04.167Z,3.58
2023-02-05T04:26:30.560Z,3.47
2023-02-05T04:28:56.927Z,3.40
2023-02-05T04:31:23.283Z,3.92
2023-02-05T04:33:49.715Z,3.40
2023-02-05T04:36:16.061Z,3.70
2023-02-05T04:38:42.478Z,3.67
2023-02-05T04:41:08.998Z,3.80
2023-02-05T04:43:35.381Z,3.60
2023-02-05T04:46:09.239Z,4.72
2023-02-05T04:48:36.393Z,6.45
2023-02-05T04:51:10.676Z,5.75
2023-02-05T04:53:37.274Z,5.10
2023-02-05T04:56:08.996Z,4.80
2023-02-05T04:58:35.604Z,4.90
2023-02-05T05:01:02.145Z,4.25
2023-02-05T05:03:28.599Z,4.88
2023-02-05T05:05:55.031Z,4.60
2023-02-05T05:08:21.553Z,3.92
2023-02-05T05:10:47.993Z,4.10
2023-02-05T05:13:14.387Z,4.15
2023-02-05T05:15:40.787Z,4.43
2023-02-05T05:18:07.144Z,3.27
2023-02-05T05:20:33.519Z,4.40
2023-02-05T05:23:00.695Z,4.10
2023-02-05T05:25:27.060Z,4.15
2023-02-05T05:27:53.433Z,3.88
2023-02-05T05:30:19.941Z,4.70
2023-02-05T05:32:46.299Z,4.70
2023-02-05T05:35:12.662Z,4.32
2023-02-05T05:37:39.003Z,4.38
2023-02-05T05:40:24.607Z,5.20
2023-02-05T05:43:09.335Z,4.67
2023-02-05T05:45:35.938Z,4.97
2023-02-05T05:48:03.170Z,4.82
2023-02-05T05:50:29.538Z,4.80
2023-02-05T05:52:55.935Z,4.70
2023-02-05T05:55:22.317Z,4.90
2023-02-05T05:57:48.654Z,5.15
2023-02-05T06:00:15.301Z,4.95
2023-02-05T06:02:44.084Z,4.82
2023-02-05T06:05:11.100Z,6.68
2023-02-05T06:07:37.644Z,6.07
2023-02-05T06:10:04.204Z,5.35
2023-02-05T06:12:30.625Z,4.97
2023-02-05T06:14:56.995Z,5.32
2023-02-05T06:17:23.626Z,5.00
2023-02-05T06:19:49.998Z,4.87
2023-02-05T06:22:16.352Z,4.80
2023-02-05T06:24:42.724Z,5.03
2023-02-05T06:27:09.077Z,4.80
2023-02-05T06:29:35.453Z,4.68
2023-02-05T06:32:01.870Z,6.47
2023-02-05T06:34:28.254Z,5.47
2023-02-05T06:36:54.653Z,5.80
2023-02-05T06:39:21.576Z,5.60
2023-02-05T06:41:48.767Z,6.32
2023-02-05T06:44:15.214Z,7.10
2023-02-05T06:46:41.628Z,7.28
2023-02-05T06:49:08.037Z,7.10
2023-02-05T06:51:34.399Z,6.47
2023-02-05T06:54:00.940Z,6.35
2023-02-05T06:56:27.326Z,6.00
2023-02-05T06:58:53.694Z,5.78
2023-02-05T07:01:20.116Z,5.65
2023-02-05T07:03:48.411Z,5.68
2023-02-05T07:06:14.788Z,6.32
2023-02-05T07:08:42.915Z,5.80
2023-02-05T07:11:09.301Z,5.68
2023-02-05T07:13:35.633Z,5.60
2023-02-05T07:16:05.265Z,6.18
2023-02-05T07:18:33.098Z,5.35
2023-02-05T07:20:59.761Z,5.40
2023-02-05T07:23:26.237Z,5.30
2023-02-05T07:25:52.619Z,4.68
2023-02-05T07:28:19.086Z,4.80
2023-02-05T07:30:47.713Z,4.70
2023-02-05T07:33:14.120Z,4.87
2023-02-05T07:35:40.544Z,5.30
2023-02-05T07:38:06.933Z,4.72
2023-02-05T07:40:33.362Z,4.93
2023-02-05T07:42:59.749Z,4.68
2023-02-05T07:45:26.131Z,5.07
2023-02-05T07:47:53.849Z,5.30
2023-02-05T07:50:20.229Z,5.25
2023-02-05T07:52:46.621Z,5.07
2023-02-05T07:55:12.988Z,4.85
2023-02-05T07:57:39.417Z,5.03
2023-02-05T08:00:07.440Z,4.90
2023-02-05T08:02:33.799Z,5.03
2023-02-05T08:05:00.140Z,5.25
2023-02-05T08:07:26.716Z,5.00
2023-02-05T08:09:53.070Z,4.63
2023-02-05T08:12:19.474Z,3.80
2023-02-05T08:14:46.178Z,4.80
2023-02-05T08:17:12.546Z,4.10
2023-02-05T08:19:38.902Z,4.22
2023-02-05T08:22:05.265Z,3.97
2023-02-05T08:24:32.588Z,4.03
2023-02-05T08:26:58.966Z,3.70
2023-02-05T08:29:25.449Z,3.90
2023-02-05T08:31:51.937Z,3.80
2023-02-05T08:34:20.739Z,4.23
2023-02-05T08:36:47.384Z,4.13
2023-02-05T08:39:13.733Z,4.35
2023-02-05T08:41:40.117Z,4.75
2023-02-05T08:44:06.521Z,4.35
2023-02-05T08:46:47.546Z,4.27
2023-02-05T08:49:16.896Z,4.05
2023-02-05T08:51:43.392Z,4.95
2023-02-05T08:54:13.013Z,4.40
2023-02-05T08:56:40.285Z,4.63
2023-02-05T08:59:06.931Z,4.27
2023-02-05T09:01:33.361Z,4.10
2023-02-05T09:03:59.996Z,4.72
2023-02-05T09:06:26.390Z,4.00
2023-02-05T09:08:52.750Z,5.43
2023-02-05T09:11:23.510Z,4.07
2023-02-05T09:13:49.896Z,3.85
2023-02-05T09:16:16.320Z,3.58
2023-02-05T09:18:42.691Z,3.28
2023-02-05T09:21:10.342Z,3.50
2023-02-05T09:23:37.302Z,3.63
2023-02-05T09:26:04.180Z,3.72
2023-02-05T09:28:30.562Z,3.45
2023-02-05T09:30:56.972Z,3.50
2023-02-05T09:33:23.323Z,3.25
2023-02-05T09:35:49.705Z,3.70
2023-02-05T09:38:17.727Z,3.70
2023-02-05T09:40:59.243Z,3.72
2023-02-05T09:43:54.941Z,3.30
2023-02-05T09:46:31.051Z,3.17
2023-02-05T09:49:09.105Z,3.57
2023-02-05T09:51:40.667Z,3.70
2023-02-05T09:54:20.568Z,3.90
2023-02-05T09:56:48.394Z,4.03
2023-02-05T09:59:21.833Z,3.97
2023-02-05T10:01:52.322Z,3.80
2023-02-05T10:04:19.460Z,3.53
2023-02-05T10:06:53.503Z,2.95
2023-02-05T10:09:44.552Z,2.78
2023-02-05T10:12:35.069Z,3.05
2023-02-05T10:15:16.331Z,3.37
2023-02-05T10:18:03.447Z,2.65
2023-02-05T10:21:00.626Z,3.10
2023-02-05T10:23:58.807Z,2.90
2023-02-05T10:26:34.916Z,2.80
2023-02-05T10:29:19.891Z,2.90
2023-02-05T10:32:06.669Z,2.80
2023-02-05T10:34:51.641Z,2.92
2023-02-05T10:37:21.404Z,3.20
2023-02-05T10:39:49.423Z,3.60
2023-02-05T10:42:28.207Z,3.40
2023-02-05T10:45:08.730Z,3.88
2023-02-05T10:47:49.329Z,3.22
2023-02-05T10:50:19.865Z,3.42
2023-02-05T10:52:46.358Z,3.40
2023-02-05T10:55:13.347Z,3.20
2023-02-05T10:57:40.069Z,3.20
2023-02-05T11:00:19.597Z,3.20
2023-02-05T11:02:50.835Z,2.88
2023-02-05T11:05:41.442Z,2.78
2023-02-05T11:08:38.616Z,2.47
2023-02-05T11:11:06.248Z,2.33
2023-02-05T11:13:35.982Z,2.47
2023-02-05T11:16:06.438Z,2.35
2023-02-05T11:18:38.859Z,2.25
2023-02-05T11:21:08.650Z,2.07
2023-02-05T11:23:39.836Z,2.10
2023-02-05T11:26:20.206Z,2.80
2023-02-05T11:28:47.136Z,2.75
2023-02-05T11:31:21.569Z,2.13
2023-02-05T11:33:48.976Z,2.33
2023-02-05T11:36:24.292Z,2.05
2023-02-05T11:38:57.070Z,2.10
2023-02-05T11:41:52.008Z,1.10
2023-02-05T11:44:25.955Z,1.50
2023-02-05T11:46:56.806Z,1.13
2023-02-05T11:49:35.329Z,1.17
2023-02-05T11:52:09.746Z,0.93
2023-02-05T11:54:36.911Z,1.00
2023-02-05T11:57:07.505Z,0.90
2023-02-05T11:59:35.447Z,1.20
2023-02-05T12:02:28.636Z,0.80
2023-02-05T12:05:09.630Z,0.90
2023-02-05T12:07:50.397Z,1.10
2023-02-05T12:10:26.086Z,1.20
2023-02-05T12:13:27.806Z,1.00
2023-02-05T12:16:12.720Z,0.90
2023-02-05T12:19:01.232Z,1.00
2023-02-05T12:21:36.986Z,1.10
2023-02-05T12:24:08.262Z,1.10
2023-02-05T12:26:41.375Z,1.30
2023-02-05T12:29:23.034Z,1.42
2023-02-05T12:32:01.150Z,1.75
2023-02-05T12:34:46.061Z,1.70
2023-02-05T12:37:32.829Z,1.67
2023-02-05T12:40:14.253Z,1.70
2023-02-05T12:42:52.815Z,1.50
2023-02-05T12:45:38.038Z,1.25
2023-02-05T12:48:11.037Z,1.10
2023-02-05T12:51:07.270Z,1.25
2023-02-05T12:53:39.205Z,1.43
2023-02-05T12:56:08.694Z,1.27
2023-02-05T12:58:41.779Z,1.52
2023-02-05T13:01:34.103Z,1.27
2023-02-05T13:04:02.386Z,0.98
2023-02-05T13:06:34.990Z,1.20
2023-02-05T13:09:18.655Z,0.90
2023-02-05T13:11:54.172Z,0.90
2023-02-05T13:14:33.141Z,0.60
2023-02-05T13:17:05.097Z,0.40
2023-02-05T13:19:41.896Z,1.37
2023-02-05T13:23:05.641Z,0.70
2023-02-05T13:25:38.707Z,2.47
2023-02-05T13:28:41.135Z,0.80
2023-02-05T13:31:20.470Z,0.40
2023-02-05T13:33:47.419Z,0.50
2023-02-05T13:36:29.005Z,0.57
2023-02-05T13:39:16.038Z,0.40
2023-02-05T13:42:01.006Z,0.50
2023-02-05T13:44:51.886Z,0.40
2023-02-05T13:47:27.329Z,0.50
2023-02-05T13:50:24.813Z,0.50
2023-02-05T13:52:54.305Z,0.80
2023-02-05T13:55:26.029Z,0.57
2023-02-05T13:58:01.058Z,0.50
2023-02-05T14:00:28.171Z,0.60
2023-02-05T14:02:57.251Z,0.70
2023-02-05T14:05:30.614Z,0.50
2023-02-05T14:08:01.876Z,0.50
2023-02-05T14:10:31.281Z,0.35
2023-02-05T14:13:19.221Z,0.40
2023-02-05T14:15:46.293Z,0.20
2023-02-05T14:18:43.235Z,0.30
2023-02-05T14:21:31.637Z,0.20
2023-02-05T14:24:00.665Z,0.30
2023-02-05T14:26:48.134Z,0.30
2023-02-05T14:29:46.692Z,0.32
2023-02-05T14:32:38.808Z,0.30
2023-02-05T14:35:38.629Z,0.40
2023-02-05T14:38:24.444Z,0.40
2023-02-05T14:41:02.124Z,0.50
2023-02-05T14:43:38.257Z,0.30
2023-02-05T14:46:25.255Z,0.20
2023-02-05T14:48:51.850Z,0.30
2023-02-05T14:51:27.234Z,0.40
2023-02-05T14:54:00.638Z,0.50
2023-02-05T14:56:39.422Z,0.50
2023-02-05T14:59:24.579Z,0.50
2023-02-05T15:01:54.457Z,0.40
2023-02-05T15:04:46.016Z,0.60
2023-02-05T15:07:16.810Z,0.53
2023-02-05T15:09:57.189Z,0.50
2023-02-05T15:12:40.456Z,0.60
2023-02-05T15:15:27.734Z,0.60
2023-02-05T15:17:58.015Z,0.60
2023-02-05T15:20:28.621Z,0.80
2023-02-05T15:23:13.394Z,0.80
2023-02-05T15:25:45.180Z,0.70
2023-02-05T15:28:24.330Z,0.80
2023-02-05T15:31:18.125Z,0.88
2023-02-05T15:34:29.708Z,0.80
2023-02-05T15:37:16.273Z,0.63
2023-02-05T15:40:05.422Z,0.85
2023-02-05T15:42:44.948Z,0.50
2023-02-05T15:45:33.690Z,0.60
2023-02-05T15:48:16.644Z,0.53
2023-02-05T15:50:54.786Z,0.50
2023-02-05T15:53:33.174Z,0.70
2023-02-05T15:56:10.958Z,0.90
2023-02-05T15:58:37.733Z,0.73
2023-02-05T16:01:04.276Z,0.70
2023-02-05T16:03:33.445Z,0.45
2023-02-05T16:06:00.281Z,1.30
2023-02-05T16:08:29.831Z,0.60
2023-02-05T16:11:01.677Z,1.40
2023-02-05T16:13:28.508Z,1.60
2023-02-05T16:16:19.311Z,1.00
2023-02-05T16:18:57.040Z,1.00
2023-02-05T16:21:48.047Z,0.90
2023-02-05T16:24:34.194Z,1.17
2023-02-05T16:27:06.017Z,1.40
2023-02-05T16:29:47.969Z,1.23
2023-02-05T16:32:28.368Z,1.15
2023-02-05T16:34:55.197Z,1.92
2023-02-05T16:37:27.591Z,1.63
2023-02-05T16:39:55.756Z,1.30
2023-02-05T16:42:37.291Z,1.45
2023-02-05T16:45:06.037Z,1.45
2023-02-05T16:47:32.454Z,1.73
2023-02-05T16:49:58.911Z,1.50
2023-02-05T16:52:32.981Z,1.70
2023-02-05T16:55:27.428Z,1.80
2023-02-05T16:57:56.193Z,2.45
2023-02-05T17:00:25.082Z,2.28
2023-02-05T17:02:57.276Z,2.50
2023-02-05T17:05:27.709Z,2.70
2023-02-05T17:08:06.488Z,2.88
2023-02-05T17:10:48.785Z,3.90
2023-02-05T17:13:42.414Z,3.97
2023-02-05T17:16:30.212Z,3.05
2023-02-05T17:19:06.217Z,3.73
2023-02-05T17:21:34.491Z,3.28
2023-02-05T17:24:03.774Z,3.25
2023-02-05T17:26:39.834Z,3.95
2023-02-05T17:29:08.833Z,4.57
2023-02-05T17:31:39.065Z,2.93
2023-02-05T17:34:06.229Z,4.82
2023-02-05T17:36:32.623Z,3.45
2023-02-05T17:38:59.013Z,3.83
2023-02-05T17:41:46.990Z,5.03
2023-02-05T17:44:15.762Z,3.40
2023-02-05T17:46:43.863Z,3.95
2023-02-05T17:49:10.913Z,4.50
2023-02-05T17:51:41.521Z,5.35
2023-02-05T17:54:18.760Z,4.00
2023-02-05T17:56:48.082Z,4.43
2023-02-05T17:59:17.507Z,3.88
2023-02-05T18:01:44.684Z,3.47
2023-02-05T18:04:11.983Z,3.58
2023-02-05T18:06:39.698Z,3.85
2023-02-05T18:09:06.650Z,4.17
2023-02-05T18:11:33.486Z,4.18
2023-02-05T18:13:59.833Z,4.07
2023-02-05T18:16:26.801Z,4.43
2023-02-05T18:18:53.180Z,4.68
2023-02-05T18:21:21.445Z,4.97
2023-02-05T18:23:50.358Z,4.45
2023-02-05T18:26:16.727Z,4.68
2023-02-05T18:28:43.118Z,4.35
2023-02-05T18:31:10.092Z,3.88
2023-02-05T18:33:36.928Z,3.10
2023-02-05T18:36:07.121Z,3.13
2023-02-05T18:38:34.918Z,3.40
2023-02-05T18:41:05.277Z,3.00
2023-02-05T18:43:31.730Z,2.65
2023-02-05T18:45:58.117Z,2.63
2023-02-05T18:48:24.523Z,3.40
2023-02-05T18:50:50.899Z,2.40
2023-02-05T18:53:17.247Z,3.78
2023-02-05T18:55:43.612Z,2.13
2023-02-05T18:58:09.956Z,4.80
2023-02-05T19:00:36.521Z,2.83
2023-02-05T19:03:03.164Z,2.17
2023-02-05T19:05:29.564Z,2.08
2023-02-05T19:07:55.982Z,2.55
2023-02-05T19:10:22.360Z,2.27
2023-02-05T19:12:50.376Z,2.10
2023-02-05T19:15:16.840Z,2.50
2023-02-05T19:17:43.223Z,2.80
2023-02-05T19:20:09.942Z,2.42
2023-02-05T19:22:36.297Z,2.20
2023-02-05T19:25:02.714Z,2.33
2023-02-05T19:27:29.073Z,2.22
2023-02-05T19:29:55.450Z,1.83
2023-02-05T19:32:23.502Z,2.80
2023-02-05T19:34:50.171Z,2.37
2023-02-05T19:37:17.731Z,2.40
2023-02-05T19:39:44.134Z,2.60
2023-02-05T19:42:10.504Z,2.60
2023-02-05T19:44:36.898Z,2.45
2023-02-05T19:47:03.444Z,2.63
2023-02-05T19:49:29.821Z,2.50
2023-02-05T19:51:59.369Z,2.70
2023-02-05T19:54:25.779Z,2.70
2023-02-05T19:56:52.330Z,3.05
2023-02-05T19:59:19.279Z,3.87
2023-02-05T20:01:46.141Z,3.90
2023-02-05T20:04:28.527Z,2.78
2023-02-05T20:06:58.117Z,3.90
2023-02-05T20:09:25.927Z,4.90
2023-02-05T20:11:53.249Z,6.20
2023-02-05T20:14:20.333Z,3.30
2023-02-05T20:16:46.908Z,2.53
2023-02-05T20:19:15.804Z,2.80
2023-02-05T20:21:42.870Z,3.17
2023-02-05T20:24:09.555Z,3.00
2023-02-05T20:26:37.375Z,2.45
2023-02-05T20:29:23.100Z,2.50
2023-02-05T20:31:51.472Z,4.30
2023-02-05T20:34:25.532Z,3.38
2023-02-05T20:36:57.565Z,3.43
2023-02-05T20:39:26.388Z,2.47
2023-02-05T20:41:52.811Z,2.83
2023-02-05T20:44:19.502Z,2.70
2023-02-05T20:46:46.572Z,2.53
2023-02-05T20:49:13.088Z,2.40
2023-02-05T20:51:40.068Z,2.92
2023-02-05T20:54:06.838Z,2.40
2023-02-05T20:56:33.912Z,2.28
2023-02-05T20:59:02.266Z,2.70
2023-02-05T21:01:30.867Z,2.80
2023-02-05T21:04:02.812Z,3.22
2023-02-05T21:06:31.589Z,2.50
2023-02-05T21:08:58.336Z,3.50
2023-02-05T21:11:25.939Z,2.50
2023-02-05T21:13:52.866Z,2.53
2023-02-05T21:16:22.635Z,2.75
2023-02-05T21:18:49.911Z,2.70
2023-02-05T21:21:19.633Z,2.60
2023-02-05T21:23:46.639Z,2.60
2023-02-05T21:26:24.368Z,2.57
2023-02-05T21:28:58.353Z,2.65
2023-02-05T21:31:26.381Z,2.80
2023-02-05T21:33:52.787Z,2.70
2023-02-05T21:36:20.403Z,2.65
2023-02-05T21:38:46.846Z,2.67
2023-02-05T21:41:16.278Z,2.55
2023-02-05T21:43:43.261Z,2.58
2023-02-05T21:46:11.977Z,2.30
2023-02-05T21:48:39.533Z,2.58
2023-02-05T21:51:08.328Z,2.30
2023-02-05T21:53:35.059Z,2.63
2023-02-05T21:56:03.444Z,2.55
2023-02-05T21:58:34.650Z,2.42
2023-02-05T22:01:12.536Z,2.45
2023-02-05T22:03:40.001Z,2.40
2023-02-05T22:06:06.741Z,2.90
2023-02-05T22:08:37.401Z,2.78
2023-02-05T22:11:05.862Z,2.45
2023-02-05T22:13:37.839Z,2.70
2023-02-05T22:16:14.711Z,2.30
2023-02-05T22:18:42.159Z,2.50
2023-02-05T22:21:12.017Z,2.53
2023-02-05T22:23:39.474Z,2.70
2023-02-05T22:26:07.091Z,2.45
2023-02-05T22:28:34.153Z,2.50
2023-02-05T22:31:08.688Z,2.30
2023-02-05T22:33:36.755Z,2.70
2023-02-05T22:36:04.174Z,2.33
2023-02-05T22:38:31.673Z,2.28
2023-02-05T22:40:58.991Z,2.70
2023-02-05T22:43:25.423Z,2.35
2023-02-05T22:45:51.819Z,2.38
2023-02-05T22:48:18.229Z,2.35
2023-02-05T22:50:45.234Z,2.28
2023-02-05T22:53:13.142Z,2.37
2023-02-05T22:55:40.308Z,2.50
2023-02-05T22:58:07.499Z,2.20
2023-02-05T23:00:33.936Z,2.47
2023-02-05T23:03:00.436Z,2.47
2023-02-05T23:05:31.512Z,2.43
2023-02-05T23:07:58.322Z,2.53
2023-02-05T23:10:24.750Z,2.15
2023-02-05T23:12:51.112Z,2.30
2023-02-05T23:15:17.730Z,2.70
2023-02-05T23:17:44.178Z,2.43
2023-02-05T23:20:11.167Z,2.40
2023-02-05T23:22:37.528Z,2.50
2023-02-05T23:25:05.457Z,2.67
2023-02-05T23:27:32.997Z,2.50
2023-02-05T23:29:59.872Z,2.60
2023-02-05T23:32:26.400Z,2.63
2023-02-05T23:34:52.817Z,2.60
2023-02-05T23:37:19.175Z,2.60
2023-02-05T23:39:45.544Z,2.63
2023-02-05T23:42:12.313Z,2.70
2023-02-05T23:44:38.771Z,2.53
2023-02-05T23:47:05.452Z,3.20
2023-02-05T23:49:31.904Z,2.65
2023-02-05T23:51:58.337Z,2.70
2023-02-05T23:54:24.855Z,2.40
2023-02-05T23:56:52.416Z,2.63
2023-02-05T23:59:18.873Z,2.80
